Time;durP1;ratioP1;P1;durP2;ratioP2;P2;SDS_P1;SDS_P2;PMS_P1;PMS_P2;Temp;Humidity;BMP_temperature;BMP_pressure;BME280_temperature;BME280_humidity;BME280_pressure;Samples;Min_cycle;Max_cycle;Signal;HPM_P1;HPM_P2
2022/05/11 04:30:35;;;;;;;;;;;;;;;17.94;61.18;97158.06;4235682;27;10262;-69
2022/05/11 04:32:38;;;;;;;;;;;;;;;18.17;61.06;97167.97;4239589;27;5670;-69
2022/05/11 04:34:41;;;;;;;;;;;;;;;18.35;60.83;97175.09;4233098;27;5671;-69
2022/05/11 04:36:43;;;;;;;;;;;;;;;18.51;60.64;97165.53;4228462;27;5824;-68
2022/05/11 04:38:46;;;;;;;;;;;;;;;18.63;60.42;97169.81;4241849;27;5856;-71
2022/05/11 04:40:49;;;;;;;;;;;;;;;18.74;60.32;97173.56;4240338;27;5750;-71
2022/05/11 04:42:52;;;;;;;;;;;;;;;18.83;60.23;97174.00;4228700;27;5877;-71
2022/05/11 04:44:55;;;;;;;;;;;;;;;18.89;60.22;97176.53;4237589;27;5687;-70
2022/05/11 04:46:59;;;;;;;;;;;;;;;18.96;60.24;97176.44;4231572;27;5893;-73
2022/05/11 04:51:32;;;;;;;;;;;;;;;19.05;60.10;97180.38;4215061;27;8113;-72
2022/05/11 04:53:35;;;;;;;;;;;;;;;19.07;59.93;97183.63;4215876;28;5713;-73
2022/05/11 04:55:38;;;;;;;;;;;;;;;19.11;59.80;97190.13;4215436;28;6154;-72
2022/05/11 04:57:41;;;;;;;;;;;;;;;19.12;60.02;97185.56;4215987;28;5689;-71
2022/05/11 04:59:44;;;;;;;;;;;;;;;19.15;59.83;97188.63;4213536;28;6506;-71
2022/05/11 05:01:47;;;;;;;;;;;;;;;19.17;59.60;97188.38;4212749;28;5769;-71
2022/05/11 05:03:50;;;;;;;;;;;;;;;19.17;59.59;97188.38;4198612;28;5706;-71
2022/05/11 05:05:52;;;;;;;;;;;;;;;19.18;59.56;97185.44;4203600;28;5789;-73
2022/05/11 05:07:57;;;;;;;;;;;;;;;19.22;59.46;97184.97;4215436;28;5765;-71
2022/05/11 05:09:59;;;;;;;;;;;;;;;19.23;59.71;97181.22;4214324;28;5673;-71
2022/05/11 05:12:02;;;;;;;;;;;;;;;19.26;59.60;97188.81;4213875;28;6949;-70
2022/05/11 05:14:06;;;;;;;;;;;;;;;19.28;59.63;97181.34;4215299;28;5779;-72
2022/05/11 05:16:09;;;;;;;;;;;;;;;19.31;59.41;97188.91;4215207;28;5709;-73
2022/05/11 05:18:12;;;;;;;;;;;;;;;19.33;59.49;97192.16;4215027;28;5796;-70
2022/05/11 05:20:15;;;;;;;;;;;;;;;19.35;59.37;97190.03;4214788;28;5697;-70
2022/05/11 05:22:18;;;;;;;;;;;;;;;19.38;59.50;97194.94;4213742;28;5840;-71
2022/05/11 05:24:23;;;;;;;;;;;;;;;19.41;59.65;97189.09;4209048;28;5715;-68
2022/05/11 05:26:26;;;;;;;;;;;;;;;19.44;59.29;97199.34;4206029;28;6486;-72
2022/05/11 05:31:08;;;;;;;;;;;;;;;19.50;59.33;97198.38;4211382;28;5677;-74
2022/05/11 05:33:12;;;;;;;;;;;;;;;19.52;59.46;97204.31;4214368;28;5764;-73
2022/05/11 05:35:18;;;;;;;;;;;;;;;19.54;59.27;97207.56;4214163;28;5681;-72
2022/05/11 05:37:21;;;;;;;;;;;;;;;19.58;59.34;97206.06;4213651;28;5724;-76
2022/05/11 05:39:25;;;;;;;;;;;;;;;19.62;59.37;97203.72;4214454;28;5705;-68
2022/05/11 05:41:28;;;;;;;;;;;;;;;19.67;59.13;97203.81;4214583;28;5709;-77
2022/05/11 05:43:32;;;;;;;;;;;;;;;19.77;58.73;97210.19;4214668;28;5841;-75
2022/05/11 05:45:35;;;;;;;;;;;;;;;19.91;58.64;97215.22;4214322;28;5774;-72
2022/05/11 05:47:38;;;;;;;;;;;;;;;20.03;58.60;97215.97;4214275;28;6697;-74
2022/05/11 05:49:41;;;;;;;;;;;;;;;20.19;58.43;97212.50;4213701;28;5709;-77
2022/05/11 05:51:44;;;;;;;;;;;;;;;20.30;58.28;97211.59;4214289;28;5709;-76
2022/05/11 05:53:47;;;;;;;;;;;;;;;20.43;58.10;97220.41;4214326;28;5701;-74
2022/05/11 05:55:51;;;;;;;;;;;;;;;20.53;57.98;97217.88;4214624;28;5745;-71
2022/05/11 05:57:54;;;;;;;;;;;;;;;20.63;57.70;97218.03;4214474;28;5694;-73
2022/05/11 06:00:01;;;;;;;;;;;;;;;20.70;57.49;97202.53;4214642;28;5805;-70
2022/05/11 06:02:06;;;;;;;;;;;;;;;20.80;57.46;97216.13;4207881;28;5690;-70
2022/05/11 06:04:09;;;;;;;;;;;;;;;20.87;57.05;97214.06;4203384;28;5724;-77
2022/05/11 06:06:12;;;;;;;;;;;;;;;20.93;56.83;97213.06;4202876;28;5073;-74
2022/05/11 06:08:16;;;;;;;;;;;;;;;21.00;57.17;97212.09;4203339;28;5681;-72
2022/05/11 06:10:19;;;;;;;;;;;;;;;21.07;56.86;97212.72;4203280;28;5690;-76
2022/05/11 06:12:24;;;;;;;;;;;;;;;21.12;56.79;97210.09;4203161;28;5777;-76
2022/05/11 06:14:27;;;;;;;;;;;;;;;21.17;56.34;97218.19;4203049;28;5966;-71
2022/05/11 06:16:32;;;;;;;;;;;;;;;21.22;56.25;97212.91;4202982;28;5682;-76
2022/05/11 06:18:36;;;;;;;;;;;;;;;21.29;56.19;97213.53;4202972;28;5697;-73
2022/05/11 06:20:40;;;;;;;;;;;;;;;21.34;56.48;97216.28;4202704;28;5718;-72
2022/05/11 06:22:43;;;;;;;;;;;;;;;21.42;55.97;97210.47;4203119;28;5809;-74
2022/05/11 06:24:46;;;;;;;;;;;;;;;21.48;56.16;97214.03;4201676;28;5673;-72
2022/05/11 06:26:49;;;;;;;;;;;;;;;21.53;55.90;97213.28;4203025;28;5693;-76
2022/05/11 06:29:07;;;;;;;;;;;;;;;21.57;55.62;97206.31;4201816;28;5708;-71
2022/05/11 06:31:11;;;;;;;;;;;;;;;21.60;55.68;97206.63;4202793;28;5693;-71
2022/05/11 06:33:17;;;;;;;;;;;;;;;21.66;55.66;97207.50;4202437;28;5698;-69
2022/05/11 06:35:20;;;;;;;;;;;;;;;21.69;55.53;97207.00;4199285;28;5818;-70
2022/05/11 06:37:24;;;;;;;;;;;;;;;21.71;55.45;97205.66;4186039;28;5809;-70
2022/05/11 06:39:27;;;;;;;;;;;;;;;21.75;55.61;97203.28;4199555;28;6400;-75
2022/05/11 06:41:31;;;;;;;;;;;;;;;21.76;55.18;97207.59;4200669;28;7718;-75
2022/05/11 06:43:34;;;;;;;;;;;;;;;21.76;55.23;97218.38;4202344;28;5698;-71
2022/05/11 06:45:38;;;;;;;;;;;;;;;21.76;54.82;97221.88;4201964;28;5683;-70
2022/05/11 06:47:41;;;;;;;;;;;;;;;21.72;55.12;97225.31;4202599;28;5776;-74
2022/05/11 06:49:44;;;;;;;;;;;;;;;21.68;55.15;97221.50;4201650;28;5706;-75
2022/05/11 06:51:47;;;;;;;;;;;;;;;21.64;54.79;97215.84;4202253;28;5682;-71
2022/05/11 07:00:49;;;;;;;;;;;;;;;21.48;54.29;97214.03;4201952;28;5693;-72
2022/05/11 07:02:52;;;;;;;;;;;;;;;21.46;54.27;97222.34;4201595;28;5797;-71
2022/05/11 07:04:56;;;;;;;;;;;;;;;21.43;54.62;97217.47;4200876;28;5697;-77
2022/05/11 07:06:59;;;;;;;;;;;;;;;21.40;54.29;97212.59;4203383;28;5676;-77
2022/05/11 07:09:03;;;;;;;;;;;;;;;21.38;54.13;97219.28;4202014;28;5767;-69
2022/05/11 07:13:29;;;;;;;;;;;;;;;21.31;54.16;97208.75;4199418;28;5682;-77
2022/05/11 07:15:32;;;;;;;;;;;;;;;21.28;53.79;97206.53;4200693;28;5714;-74
2022/05/11 07:17:38;;;;;;;;;;;;;;;21.25;53.83;97212.38;4194440;28;5690;-72
2022/05/11 07:19:43;;;;;;;;;;;;;;;21.21;53.72;97208.59;4201889;28;6343;-73
2022/05/11 07:21:46;;;;;;;;;;;;;;;21.18;53.79;97206.41;4201927;28;5686;-74
2022/05/11 07:23:49;;;;;;;;;;;;;;;21.17;53.97;97213.63;4202000;28;5675;-73
2022/05/11 07:25:52;;;;;;;;;;;;;;;21.16;53.86;97211.19;4201630;28;5776;-73
2022/05/11 07:27:57;;;;;;;;;;;;;;;21.16;53.59;97212.00;4202047;28;5689;-72
2022/05/11 07:30:00;;;;;;;;;;;;;;;21.14;53.69;97213.31;4201891;28;5698;-73
2022/05/11 07:32:03;;;;;;;;;;;;;;;21.11;53.57;97203.91;4202000;28;6516;-73
2022/05/11 07:34:07;;;;;;;;;;;;;;;21.12;53.48;97220.84;4201815;28;5753;-72
2022/05/11 07:36:10;;;;;;;;;;;;;;;21.08;53.18;97217.84;4201486;28;5694;-73
2022/05/11 07:38:15;;;;;;;;;;;;;;;21.06;53.13;97224.50;4201543;28;5820;-72
2022/05/11 07:40:20;;;;;;;;;;;;;;;21.03;53.10;97214.25;4201863;28;5693;-73
2022/05/11 07:42:24;;;;;;;;;;;;;;;21.02;53.43;97215.31;4201714;28;5740;-72
2022/05/11 07:44:27;;;;;;;;;;;;;;;21.01;53.08;97213.69;4201598;28;5706;-72
2022/05/11 07:46:34;;;;;;;;;;;;;;;21.01;52.94;97217.19;4201906;28;5808;-73
2022/05/11 07:48:37;;;;;;;;;;;;;;;21.00;53.12;97218.28;4201386;28;6535;-73
2022/05/11 07:50:41;;;;;;;;;;;;;;;21.01;53.11;97219.88;4200892;28;5838;-73
2022/05/11 07:52:46;;;;;;;;;;;;;;;21.00;52.81;97212.88;4201586;28;5689;-73
2022/05/11 07:54:49;;;;;;;;;;;;;;;21.00;52.83;97206.72;4201459;28;5685;-74
2022/05/11 08:01:35;;;;;;;;;;;;;;;21.01;52.80;97202.94;4184873;28;6454;-72
2022/05/11 08:03:38;;;;;;;;;;;;;;;21.00;52.72;97202.16;4184744;28;5730;-73
2022/05/11 08:05:42;;;;;;;;;;;;;;;21.02;52.92;97199.19;4184597;28;5789;-72
2022/05/11 08:07:52;;;;;;;;;;;;;;;21.04;52.71;97199.75;4183707;28;5741;-73
2022/05/11 08:09:59;;;;;;;;;;;;;;;21.08;52.58;97204.41;4184893;28;5722;-73
2022/05/11 08:12:02;;;;;;;;;;;;;;;21.11;52.54;97200.41;4185008;28;5818;-73
2022/05/11 08:14:06;;;;;;;;;;;;;;;21.14;52.86;97207.94;4184915;28;6415;-74
2022/05/11 08:16:09;;;;;;;;;;;;;;;21.15;52.78;97198.81;4184651;28;6491;-73
2022/05/11 08:18:13;;;;;;;;;;;;;;;21.15;52.82;97198.81;4188547;28;5796;-73
2022/05/11 08:20:19;;;;;;;;;;;;;;;21.14;52.70;97206.06;4200949;28;5701;-73
2022/05/11 08:22:24;;;;;;;;;;;;;;;21.13;52.41;97209.81;4201195;28;5784;-73
2022/05/11 08:24:27;;;;;;;;;;;;;;;21.11;52.42;97205.78;4201128;28;5693;-73
2022/05/11 08:26:31;;;;;;;;;;;;;;;21.10;52.86;97206.84;4201214;28;5721;-73
2022/05/11 08:28:36;;;;;;;;;;;;;;;21.09;52.48;97208.72;4199919;28;6388;-72
2022/05/11 08:35:41;;;;;;;;;;;;;;;21.14;52.59;97208.75;4200805;28;5689;-73
2022/05/11 08:37:46;;;;;;;;;;;;;;;21.15;52.55;97196.13;4200909;28;5745;-72
2022/05/11 08:39:50;;;;;;;;;;;;;;;21.18;52.74;97201.03;4185950;28;5707;-72
2022/05/11 08:41:53;;;;;;;;;;;;;;;21.20;52.35;97202.41;4184456;28;5806;-74
2022/05/11 08:44:01;;;;;;;;;;;;;;;21.22;52.21;97197.56;4182903;28;5718;-73
2022/05/11 08:46:14;;;;;;;;;;;;;;;21.25;52.72;97195.44;4184378;28;5722;-73
2022/05/11 08:48:26;;;;;;;;;;;;;;;21.28;52.66;97195.78;4184449;28;5766;-72
2022/05/11 08:50:31;;;;;;;;;;;;;;;21.30;52.42;97182.91;4184084;28;5752;-73
2022/05/11 08:52:43;;;;;;;;;;;;;;;21.33;52.52;97189.66;4184417;28;5719;-72
2022/05/11 08:54:51;;;;;;;;;;;;;;;21.34;52.08;97192.09;4184328;28;5743;-73
2022/05/11 08:56:55;;;;;;;;;;;;;;;21.38;52.44;97187.00;4184392;28;6466;-73
2022/05/11 08:58:58;;;;;;;;;;;;;;;21.40;52.12;97182.19;4198402;28;5693;-73
2022/05/11 09:01:02;;;;;;;;;;;;;;;21.43;51.80;97185.22;4200803;28;5685;-73
2022/05/11 09:03:11;;;;;;;;;;;;;;;21.45;51.98;97188.44;4201084;28;5794;-74
2022/05/11 09:05:18;;;;;;;;;;;;;;;21.47;51.62;97186.31;4200595;28;6369;-74
2022/05/11 09:07:22;;;;;;;;;;;;;;;21.49;51.68;97189.56;4201018;28;5681;-73
2022/05/11 09:09:25;;;;;;;;;;;;;;;21.50;51.33;97185.00;4200790;28;5784;-72
2022/05/11 09:11:36;;;;;;;;;;;;;;;21.53;51.29;97189.06;4200888;28;5701;-71
2022/05/11 09:13:42;;;;;;;;;;;;;;;21.55;51.20;97186.94;4199508;28;5685;-72
2022/05/11 09:16:00;;;;;;;;;;;;;;;21.57;50.89;97182.13;4200774;28;5724;-72
2022/05/11 09:18:06;;;;;;;;;;;;;;;21.60;50.64;97184.28;4200765;28;5062;-72
2022/05/11 09:20:13;;;;;;;;;;;;;;;21.61;50.75;97180.53;4200380;28;5082;-72
2022/05/11 09:22:17;;;;;;;;;;;;;;;21.63;50.54;97179.22;4200871;28;5705;-72
2022/05/11 09:24:44;;;;;;;;;;;;;;;21.66;50.19;97177.91;4200686;28;5714;-71
2022/05/11 09:27:02;;;;;;;;;;;;;;;21.69;50.10;97174.69;4200590;28;5705;-72
2022/05/11 09:29:23;;;;;;;;;;;;;;;21.74;50.06;97180.13;4189109;28;5766;-72
2022/05/11 09:31:28;;;;;;;;;;;;;;;21.74;50.12;97178.22;4184232;28;5839;-71
2022/05/11 09:33:33;;;;;;;;;;;;;;;21.77;49.77;97171.56;4183851;28;5711;-73
2022/05/11 09:35:37;;;;;;;;;;;;;;;21.78;49.58;97170.50;4183616;28;5720;-72
2022/05/11 09:37:54;;;;;;;;;;;;;;;21.82;49.68;97179.66;4186187;28;5778;-72
2022/05/11 09:40:10;;;;;;;;;;;;;;;21.84;49.34;97177.53;4202871;28;5481;-73
2022/05/11 09:42:26;;;;;;;;;;;;;;;21.87;49.32;97181.59;4203931;28;5709;-73
2022/05/11 09:44:42;;;;;;;;;;;;;;;21.91;49.36;97170.06;4200653;28;5858;-73
2022/05/11 09:46:46;;;;;;;;;;;;;;;21.93;48.73;97176.00;4203380;28;5660;-73
2022/05/11 09:48:59;;;;;;;;;;;;;;;21.95;48.87;97175.72;4201189;28;5904;-73
2022/05/11 09:51:19;;;;;;;;;;;;;;;21.98;48.90;97173.38;4202322;28;5749;-73
2022/05/11 09:53:27;;;;;;;;;;;;;;;22.01;48.61;97174.72;4203001;28;5792;-72
2022/05/11 09:55:37;;;;;;;;;;;;;;;22.04;49.02;97175.00;4203602;28;5718;-73
2022/05/11 09:57:54;;;;;;;;;;;;;;;22.06;48.44;97169.41;4203519;28;5705;-73
2022/05/11 10:00:19;;;;;;;;;;;;;;;22.07;48.91;97168.31;4203657;28;5789;-73
2022/05/11 10:02:25;;;;;;;;;;;;;;;22.08;48.75;97164.56;4203060;28;5776;-73
2022/05/11 10:04:36;;;;;;;;;;;;;;;22.11;48.81;97160.56;4203512;28;5729;-71
2022/05/11 10:06:47;;;;;;;;;;;;;;;22.14;48.48;97162.75;4203204;28;5694;-72
2022/05/11 10:08:53;;;;;;;;;;;;;;;22.15;48.32;97162.47;4203428;28;5806;-72
2022/05/11 10:11:03;;;;;;;;;;;;;;;22.17;48.64;97167.59;4203385;28;5737;-72
2022/05/11 10:13:17;;;;;;;;;;;;;;;22.20;48.27;97161.69;4203110;28;5685;-72
2022/05/11 10:22:37;;;;;;;;;;;;;;;22.23;48.41;97158.50;4201664;28;5736;-71
2022/05/11 10:25:03;;;;;;;;;;;;;;;22.24;48.12;97149.34;4202964;28;5772;-72
2022/05/11 10:27:15;;;;;;;;;;;;;;;22.25;47.98;97142.88;4202857;28;5706;-72
2022/05/11 10:29:32;;;;;;;;;;;;;;;22.27;48.38;97146.94;4202642;28;5689;-72
2022/05/11 10:31:44;;;;;;;;;;;;;;;22.27;48.11;97146.94;4203230;28;5702;-72
2022/05/11 10:34:02;;;;;;;;;;;;;;;22.29;47.95;97138.59;4203124;28;6928;-72
2022/05/11 10:36:13;;;;;;;;;;;;;;;22.31;48.18;97147.22;4202557;28;5756;-72
2022/05/11 10:38:33;;;;;;;;;;;;;;;22.34;48.05;97144.03;4200532;28;5701;-72
2022/05/11 10:40:48;;;;;;;;;;;;;;;22.37;48.09;97140.81;4185988;28;5719;-72
2022/05/11 10:43:08;;;;;;;;;;;;;;;22.42;47.68;97138.13;4185563;28;6382;-72
2022/05/11 10:45:20;;;;;;;;;;;;;;;22.44;47.88;97138.72;4186323;28;5819;-72
2022/05/11 10:47:41;;;;;;;;;;;;;;;22.47;47.84;97130.09;4185930;28;5723;-72
2022/05/11 10:50:03;;;;;;;;;;;;;;;22.50;47.38;97124.19;4185737;28;6502;-71
2022/05/11 10:52:36;;;;;;;;;;;;;;;22.52;47.63;97126.63;4198044;28;5693;-72
2022/05/11 10:54:52;;;;;;;;;;;;;;;22.53;47.25;97112.06;4202463;28;5923;-72
2022/05/11 10:57:08;;;;;;;;;;;;;;;22.54;47.71;97109.13;4202545;28;5934;-72
2022/05/11 10:59:28;;;;;;;;;;;;;;;22.55;47.37;97105.38;4196444;28;7707;-72
2022/05/11 11:01:44;;;;;;;;;;;;;;;22.57;47.65;97099.72;4202895;28;6047;-72
2022/05/11 11:04:01;;;;;;;;;;;;;;;22.59;47.55;97100.25;4186233;28;7741;-72
2022/05/11 11:08:46;;;;;;;;;;;;;;;22.64;47.25;97097.56;4185779;28;5714;-72
2022/05/11 11:10:53;;;;;;;;;;;;;;;22.65;47.14;97083.88;4185884;28;5699;-72
2022/05/11 11:13:30;;;;;;;;;;;;;;;22.69;46.93;97096.81;4185949;28;5781;-72
2022/05/11 11:15:37;;;;;;;;;;;;;;;22.71;47.36;97089.25;4185850;28;5805;-72
2022/05/11 11:17:46;;;;;;;;;;;;;;;22.72;47.05;97077.41;4185675;28;5714;-72
2022/05/11 11:19:52;;;;;;;;;;;;;;;22.72;47.32;97089.00;4185848;28;5711;-71
2022/05/11 11:21:55;;;;;;;;;;;;;;;22.72;47.00;97078.22;4185405;28;5698;-72
2022/05/11 11:24:22;;;;;;;;;;;;;;;22.76;47.16;97089.28;4185385;28;5778;-71
2022/05/11 11:26:48;;;;;;;;;;;;;;;22.78;47.11;97070.97;4185664;28;5819;-71
2022/05/11 11:29:21;;;;;;;;;;;;;;;22.80;46.82;97066.13;4188751;28;5759;-72
2022/05/11 11:31:24;;;;;;;;;;;;;;;22.80;47.12;97075.03;4200838;28;6368;-72
2022/05/11 11:33:30;;;;;;;;;;;;;;;22.83;47.06;97068.28;4201965;28;5697;-72
2022/05/11 11:35:36;;;;;;;;;;;;;;;22.85;46.88;97058.06;4201870;28;5705;-72
2022/05/11 11:37:42;;;;;;;;;;;;;;;22.87;46.84;97059.41;4202151;28;5685;-72
2022/05/11 11:39:54;;;;;;;;;;;;;;;22.88;47.00;97055.69;4199023;28;5769;-71
2022/05/11 11:42:08;;;;;;;;;;;;;;;22.89;46.77;97054.59;4193086;28;5810;-72
2022/05/11 11:44:30;;;;;;;;;;;;;;;22.91;47.02;97043.56;4200422;28;6381;-72
2022/05/11 11:46:38;;;;;;;;;;;;;;;22.91;46.93;97054.34;4185221;28;5726;-72
2022/05/11 11:48:45;;;;;;;;;;;;;;;22.92;46.66;97053.25;4190948;28;5678;-72
2022/05/11 11:50:53;;;;;;;;;;;;;;;22.94;46.79;97053.78;4194850;28;5735;-72
2022/05/11 11:53:09;;;;;;;;;;;;;;;22.95;46.59;97044.63;4194781;28;5697;-72
2022/05/11 11:55:26;;;;;;;;;;;;;;;22.94;46.41;97041.13;4190937;28;5872;-69
2022/05/11 11:57:31;;;;;;;;;;;;;;;22.95;46.78;97040.03;4194739;28;5729;-68
2022/05/11 11:59:41;;;;;;;;;;;;;;;23.00;46.41;97033.88;4201186;28;5689;-69
2022/05/11 12:01:47;;;;;;;;;;;;;;;23.01;46.60;97024.72;4201765;28;5720;-70
2022/05/11 12:03:58;;;;;;;;;;;;;;;23.03;46.74;97022.53;4201804;28;5697;-70
2022/05/11 12:16:04;;;;;;;;;;;;;;;23.20;46.17;97009.63;4135107;28;5848;-75
2022/05/11 12:18:23;;;;;;;;;;;;;;;23.23;46.35;97013.69;4135045;28;5885;-74
2022/05/11 12:20:40;;;;;;;;;;;;;;;23.24;46.08;97010.72;4134649;28;5898;-74
2022/05/11 12:22:52;;;;;;;;;;;;;;;23.30;45.89;97010.69;4134646;28;5809;-75
2022/05/11 12:25:02;;;;;;;;;;;;;;;23.33;45.83;96996.66;4134197;28;5798;-74
2022/05/11 12:27:12;;;;;;;;;;;;;;;23.34;45.94;96998.31;4134777;28;5797;-75
2022/05/11 12:31:39;;;;;;;;;;;;;;;23.38;46.06;97000.19;4150627;28;5900;-74
2022/05/11 12:33:53;;;;;;;;;;;;;;;23.37;45.98;96995.06;4150459;28;5949;-73
2022/05/11 12:35:58;;;;;;;;;;;;;;;23.38;45.71;96989.41;4149724;28;5791;-74
2022/05/11 12:38:03;;;;;;;;;;;;;;;23.43;45.81;96996.69;4150165;28;5996;-75
2022/05/11 12:40:12;;;;;;;;;;;;;;;23.43;45.55;96993.97;4133683;28;7841;-73
2022/05/11 12:42:28;;;;;;;;;;;;;;;23.42;45.70;96990.47;4133612;28;5837;-75
2022/05/11 12:44:33;;;;;;;;;;;;;;;23.43;45.96;96992.09;4133819;28;5809;-73
2022/05/11 12:46:40;;;;;;;;;;;;;;;23.44;46.03;96990.19;4117354;28;5891;-75
2022/05/11 12:48:52;;;;;;;;;;;;;;;23.49;45.88;96990.22;4133890;28;5864;-75
2022/05/11 12:51:01;;;;;;;;;;;;;;;23.49;45.59;96984.81;4174937;28;5837;-75
2022/05/11 12:53:22;;;;;;;;;;;;;;;23.47;45.87;96985.09;4184625;28;5751;-74
2022/05/11 12:55:31;;;;;;;;;;;;;;;23.49;45.40;96974.84;4185235;28;5714;-75
2022/05/11 12:57:35;;;;;;;;;;;;;;;23.54;45.36;96982.09;4189537;28;5701;-76
2022/05/11 12:59:39;;;;;;;;;;;;;;;23.58;45.17;96977.81;4209826;28;6423;-75
2022/05/11 13:01:41;;;;;;;;;;;;;;;23.62;45.13;96983.47;4204838;28;5694;-75
2022/05/11 13:03:49;;;;;;;;;;;;;;;23.63;45.24;96975.09;4200607;28;5757;-74
2022/05/11 13:05:55;;;;;;;;;;;;;;;23.69;45.50;96979.44;4188368;28;5800;-74
2022/05/11 13:08:02;;;;;;;;;;;;;;;23.75;45.59;96978.31;4196427;28;5850;-75
2022/05/11 13:10:08;;;;;;;;;;;;;;;23.76;45.15;96974.53;4187562;28;5790;-72
2022/05/11 13:12:15;;;;;;;;;;;;;;;23.79;45.11;96971.31;4198574;28;5780;-83
2022/05/11 13:14:18;;;;;;;;;;;;;;;23.80;45.20;96967.53;4198106;28;5781;-77
2022/05/11 13:16:24;;;;;;;;;;;;;;;23.85;44.81;96960.50;4201302;28;5701;-76
2022/05/11 13:18:30;;;;;;;;;;;;;;;23.86;45.00;96954.81;4198038;28;5809;-76
2022/05/11 13:20:37;;;;;;;;;;;;;;;23.89;44.93;96962.38;4191943;28;5143;-75
2022/05/11 13:22:49;;;;;;;;;;;;;;;23.94;44.66;96959.66;4198685;28;5783;-75
2022/05/11 13:24:56;;;;;;;;;;;;;;;23.98;44.92;96955.31;4204065;28;5714;-76
2022/05/11 13:26:58;;;;;;;;;;;;;;;24.01;44.68;96954.78;4203403;28;7169;-79
2022/05/11 13:29:10;;;;;;;;;;;;;;;24.04;44.37;96948.84;4203118;28;5741;-74
2022/05/11 13:31:29;;;;;;;;;;;;;;;24.06;44.18;96952.06;4202307;28;5789;-76
2022/05/11 13:33:42;;;;;;;;;;;;;;;24.05;44.29;96955.84;4203779;28;5689;-73
2022/05/11 13:35:45;;;;;;;;;;;;;;;24.05;44.10;96955.03;4193248;28;5686;-72
2022/05/11 13:38:02;;;;;;;;;;;;;;;24.05;44.34;96941.53;4203161;28;5757;-72
2022/05/11 13:40:08;;;;;;;;;;;;;;;24.05;44.26;96949.66;4189896;28;5701;-72
2022/05/11 13:42:19;;;;;;;;;;;;;;;24.06;44.39;96946.66;4200574;28;5938;-70
2022/05/11 13:44:27;;;;;;;;;;;;;;;24.07;44.24;96948.28;4202530;28;5785;-74
2022/05/11 13:49:16;;;;;;;;;;;;;;;24.14;44.12;96942.59;4191591;28;5437;-74
2022/05/11 13:51:22;;;;;;;;;;;;;;;24.14;43.64;96936.38;4185987;28;5139;-73
2022/05/11 13:53:31;;;;;;;;;;;;;;;24.15;43.62;96943.41;4187242;28;5805;-68
2022/05/11 13:55:38;;;;;;;;;;;;;;;24.16;43.69;96951.22;4192343;28;5664;-69
2022/05/11 13:57:41;;;;;;;;;;;;;;;24.18;43.41;96940.16;4203352;28;5725;-69
2022/05/11 13:59:46;;;;;;;;;;;;;;;24.23;43.26;96940.09;4203308;28;7164;-69
2022/05/11 14:01:49;;;;;;;;;;;;;;;24.27;43.40;96936.59;4199268;28;6277;-63
2022/05/11 14:03:56;;;;;;;;;;;;;;;24.29;43.34;96939.81;4194796;28;5780;-62
2022/05/11 14:06:00;;;;;;;;;;;;;;;24.33;42.98;96935.50;4196875;28;5677;-81
2022/05/11 14:08:04;;;;;;;;;;;;;;;24.35;42.93;96933.34;4202008;28;5804;-65
2022/05/11 14:10:08;;;;;;;;;;;;;;;24.36;42.71;96934.97;4201708;28;5710;-74
2022/05/11 14:12:13;;;;;;;;;;;;;;;24.38;42.94;96932.78;4202156;28;5732;-68
2022/05/11 14:14:16;;;;;;;;;;;;;;;24.39;42.86;96930.91;4197082;28;5803;-70
2022/05/11 14:16:25;;;;;;;;;;;;;;;24.42;42.87;96926.81;4200829;28;5130;-64
2022/05/11 14:18:28;;;;;;;;;;;;;;;24.42;42.73;96926.81;4196939;28;5695;-65
2022/05/11 14:20:32;;;;;;;;;;;;;;;24.37;42.74;96920.38;4201210;28;5693;-64
2022/05/11 14:22:39;;;;;;;;;;;;;;;24.35;42.47;96921.72;4198519;28;5697;-65
2022/05/11 14:24:42;;;;;;;;;;;;;;;24.37;42.67;96917.66;4197608;28;5772;-65
2022/05/11 14:26:45;;;;;;;;;;;;;;;24.41;42.44;96917.09;4195279;28;5706;-65
2022/05/11 14:28:49;;;;;;;;;;;;;;;24.47;42.40;96924.91;4201487;28;5915;-65
2022/05/11 14:30:53;;;;;;;;;;;;;;;24.51;42.26;96920.56;4201455;28;5776;-65
2022/05/11 14:32:56;;;;;;;;;;;;;;;24.54;42.29;96917.28;4201404;28;5677;-65
2022/05/11 14:34:59;;;;;;;;;;;;;;;24.57;42.10;96918.63;4202433;28;6358;-65
2022/05/11 14:37:02;;;;;;;;;;;;;;;24.56;41.96;96920.50;4202403;28;5761;-65
2022/05/11 14:39:06;;;;;;;;;;;;;;;24.55;42.01;96912.69;4202754;28;5856;-65
2022/05/11 14:41:10;;;;;;;;;;;;;;;24.60;41.88;96920.78;4202857;28;5729;-65
2022/05/11 14:43:13;;;;;;;;;;;;;;;24.65;41.56;96918.03;4202660;28;5896;-65
2022/05/11 14:45:17;;;;;;;;;;;;;;;24.64;41.58;96913.72;4202625;28;5705;-65
2022/05/11 14:47:20;;;;;;;;;;;;;;;24.63;41.89;96912.09;4202626;28;5706;-65
2022/05/11 14:49:23;;;;;;;;;;;;;;;24.63;41.84;96912.91;4195127;28;5776;-65
2022/05/11 14:51:27;;;;;;;;;;;;;;;24.63;41.91;96912.91;4189440;28;5824;-65
2022/05/11 14:53:30;;;;;;;;;;;;;;;24.65;41.59;96899.13;4185806;28;5758;-64
2022/05/11 14:55:33;;;;;;;;;;;;;;;24.69;41.83;96900.19;4198303;28;5772;-64
2022/05/11 15:02:18;;;;;;;;;;;;;;;24.74;41.59;96902.84;4185456;28;5809;-64
2022/05/11 15:04:26;;;;;;;;;;;;;;;24.74;41.70;96897.44;4185725;28;5735;-65
2022/05/11 15:06:34;;;;;;;;;;;;;;;24.74;41.43;96902.03;4187881;28;5786;-65
2022/05/11 15:08:37;;;;;;;;;;;;;;;24.73;41.67;96901.22;4189275;28;5707;-65
2022/05/11 15:10:44;;;;;;;;;;;;;;;24.73;41.60;96889.63;4199390;28;6899;-65
2022/05/11 15:15:09;;;;;;;;;;;;;;;24.77;41.77;96896.06;4198145;28;5698;-65
2022/05/11 15:17:18;;;;;;;;;;;;;;;24.77;41.50;96896.88;4199363;28;5789;-71
2022/05/11 15:19:43;;;;;;;;;;;;;;;24.79;41.55;96899.28;4187441;28;5716;-79
2022/05/11 15:21:46;;;;;;;;;;;;;;;24.82;41.54;96894.16;4190094;28;5693;-74
2022/05/11 15:23:49;;;;;;;;;;;;;;;24.82;41.41;96899.56;4187682;28;5804;-70
2022/05/11 15:25:52;;;;;;;;;;;;;;;24.82;41.34;96886.03;4207742;28;5770;-80
2022/05/11 15:27:56;;;;;;;;;;;;;;;24.82;41.50;96896.84;4210346;28;5721;-79
2022/05/11 15:29:59;;;;;;;;;;;;;;;24.83;41.52;96900.34;4195176;28;5714;-76
2022/05/11 15:32:07;;;;;;;;;;;;;;;24.84;41.35;96886.56;4202243;28;6374;-78
2022/05/11 15:34:12;;;;;;;;;;;;;;;24.87;41.53;96887.88;4200113;28;5769;-80
2022/05/11 15:36:17;;;;;;;;;;;;;;;24.87;41.63;96888.69;4194332;28;5951;-72
2022/05/11 15:38:20;;;;;;;;;;;;;;;24.86;41.21;96887.06;4199451;28;5753;-73
2022/05/11 15:40:26;;;;;;;;;;;;;;;24.85;41.30;96885.47;4199495;28;5796;-81
2022/05/11 15:42:38;;;;;;;;;;;;;;;24.88;41.52;96882.19;4203820;28;5817;-75
2022/05/11 15:44:42;;;;;;;;;;;;;;;24.91;41.00;96883.50;4196388;28;6376;-73
2022/05/11 15:46:45;;;;;;;;;;;;;;;24.91;41.34;96887.03;4196777;28;5729;-77
2022/05/11 15:48:48;;;;;;;;;;;;;;;24.93;41.24;96890.28;4196315;28;5788;-72
2022/05/11 15:50:50;;;;;;;;;;;;;;;24.96;40.71;96889.69;4197975;28;5793;-67
2022/05/11 15:52:56;;;;;;;;;;;;;;;24.96;40.72;96894.31;4192919;28;5997;-66
2022/05/11 15:54:59;;;;;;;;;;;;;;;24.95;41.08;96888.09;4198464;28;5795;-68
2022/05/11 15:57:02;;;;;;;;;;;;;;;24.97;41.01;96891.31;4199502;28;5784;-76
2022/05/11 15:59:05;;;;;;;;;;;;;;;24.97;41.07;96891.31;4203023;28;6499;-84
2022/05/11 16:01:14;;;;;;;;;;;;;;;24.98;40.92;96892.94;4200365;28;5801;-75
2022/05/11 16:03:18;;;;;;;;;;;;;;;24.98;40.85;96892.94;4197251;28;5836;-81
2022/05/11 16:05:24;;;;;;;;;;;;;;;24.97;40.70;96894.00;4199930;28;7751;-69
2022/05/11 16:07:27;;;;;;;;;;;;;;;24.96;41.00;96895.09;4197582;28;5705;-73
2022/05/11 16:09:32;;;;;;;;;;;;;;;24.97;41.04;96885.91;4200364;28;5748;-74
2022/05/11 16:11:38;;;;;;;;;;;;;;;24.97;40.71;96888.59;4200988;28;6576;-72
2022/05/11 16:13:41;;;;;;;;;;;;;;;24.96;40.89;96889.69;4197764;28;5994;-73
2022/05/11 16:15:44;;;;;;;;;;;;;;;24.96;40.92;96894.31;4192583;28;6724;-74
2022/05/11 16:20:08;;;;;;;;;;;;;;;24.93;40.76;96895.69;4192700;28;5804;-75
2022/05/11 16:22:12;;;;;;;;;;;;;;;24.91;40.70;96880.81;4194340;28;5847;-74
2022/05/11 16:24:15;;;;;;;;;;;;;;;24.92;40.88;96883.25;4196327;28;5122;-74
2022/05/11 16:26:20;;;;;;;;;;;;;;;24.90;40.99;96880.00;4193452;28;5099;-75
2022/05/11 16:28:23;;;;;;;;;;;;;;;24.89;40.99;96883.78;4197408;28;5800;-74
2022/05/11 16:30:25;;;;;;;;;;;;;;;24.89;40.58;96891.91;4197410;28;5099;-74
2022/05/11 16:32:29;;;;;;;;;;;;;;;24.87;40.65;96880.56;4198676;28;5788;-74
2022/05/11 16:34:32;;;;;;;;;;;;;;;24.86;40.58;96884.38;4198178;28;5958;-73
2022/05/11 16:36:35;;;;;;;;;;;;;;;24.85;40.35;96879.25;4195147;28;5698;-74
2022/05/11 16:38:38;;;;;;;;;;;;;;;24.84;40.66;96881.16;4195032;28;5792;-74